createdAt,value
2024-01-15T00:01:12.000Z,15.77
2024-01-15T00:04:17.641Z,13.65
2024-01-15T00:07:48.991Z,16.42
2024-01-15T00:10:50.855Z,19.48
2024-01-15T00:14:09.333Z,21.27
2024-01-15T00:17:22.539Z,18.27
2024-01-15T00:20:33.599Z,16.27
2024-01-15T00:23:40.968Z,15.23
2024-01-15T00:27:15.362Z,14.57
2024-01-15T00:30:49.772Z,20.60
2024-01-15T00:34:24.594Z,20.25
2024-01-15T00:38:05.745Z,17.80
2024-01-15T00:41:33.651Z,15.60
2024-01-15T00:44:43.925Z,16.80
2024-01-15T00:48:04.797Z,15.07
2024-01-15T00:51:39.391Z,15.48
2024-01-15T00:54:47.951Z,17.08
2024-01-15T00:57:56.394Z,17.02
2024-01-15T01:01:03.196Z,17.15
2024-01-15T01:04:24.595Z,14.73
2024-01-15T01:11:29.280Z,20.27
2024-01-15T01:18:19.963Z,18.38
2024-01-15T01:21:44.755Z,18.75
2024-01-15T01:24:40.944Z,16.15
2024-01-15T01:27:48.185Z,18.17
2024-01-15T01:31:03.685Z,20.02
2024-01-15T01:34:34.965Z,20.27
2024-01-15T01:37:43.200Z,16.50
2024-01-15T01:40:59.035Z,16.73
2024-01-15T01:44:16.357Z,17.17
2024-01-15T01:47:42.976Z,17.90
2024-01-15T01:50:56.785Z,18.20
2024-01-15T01:54:18.656Z,20.38
2024-01-15T01:57:37.895Z,18.20
2024-01-15T02:00:58.868Z,18.27
2024-01-15T02:04:12.971Z,17.60
2024-01-15T02:07:19.324Z,20.75
2024-01-15T02:10:38.103Z,17.42
2024-01-15T02:14:16.133Z,19.23
2024-01-15T02:17:39.707Z,17.42
2024-01-15T02:21:17.247Z,17.38
2024-01-15T02:24:33.785Z,20.08
2024-01-15T02:27:50.025Z,15.13
2024-01-15T02:31:09.557Z,17.83
2024-01-15T02:34:30.912Z,16.30
2024-01-15T02:37:54.014Z,17.63
2024-01-15T02:41:08.053Z,14.95
2024-01-15T02:44:10.621Z,19.60
2024-01-15T02:47:20.009Z,17.15
2024-01-15T02:50:40.035Z,17.48
2024-01-15T02:53:35.018Z,18.60
2024-01-15T02:56:29.915Z,18.77
2024-01-15T03:04:49.241Z,16.50
2024-01-15T03:07:53.382Z,17.48
2024-01-15T03:11:18.181Z,23.55
2024-01-15T03:21:06.995Z,21.67
2024-01-15T03:24:35.736Z,22.85
2024-01-15T03:35:37.926Z,27.17
2024-01-15T03:38:58.508Z,25.75
2024-01-15T03:42:45.930Z,22.40
2024-01-15T03:46:28.653Z,21.92
2024-01-15T03:49:43.430Z,23.52
2024-01-15T03:56:06.735Z,27.65
2024-01-15T03:59:37.631Z,22.42
2024-01-15T04:02:32.005Z,22.25
2024-01-15T04:05:27.405Z,26.55
2024-01-15T04:08:50.410Z,26.85
2024-01-15T04:11:57.132Z,21.02
2024-01-15T04:22:31.577Z,21.55
2024-01-15T04:25:56.915Z,24.50
2024-01-15T04:32:37.692Z,22.88
2024-01-15T04:39:15.911Z,24.00
2024-01-15T04:45:31.728Z,33.22
2024-01-15T04:49:11.794Z,31.70
2024-01-15T04:56:07.254Z,27.23
2024-01-15T04:59:31.105Z,23.05
2024-01-15T05:03:01.945Z,23.30
2024-01-15T05:06:37.839Z,25.00
2024-01-15T05:09:45.565Z,24.98
2024-01-15T05:12:32.823Z,30.25
2024-01-15T05:16:01.994Z,26.55
2024-01-15T05:20:02.891Z,29.20
2024-01-15T05:23:51.947Z,26.45
2024-01-15T05:27:21.266Z,28.08
2024-01-15T05:34:12.589Z,30.15
2024-01-15T05:37:24.413Z,28.88
2024-01-15T05:40:42.638Z,27.00
2024-01-15T05:44:50.510Z,27.73
2024-01-15T05:47:52.389Z,29.73
2024-01-15T05:58:50.664Z,24.13
2024-01-15T06:02:07.916Z,28.02
2024-01-15T06:08:56.919Z,24.75
2024-01-15T06:12:10.684Z,27.30
2024-01-15T06:15:28.877Z,27.98
2024-01-15T06:18:50.341Z,25.00
2024-01-15T06:21:48.124Z,25.00
2024-01-15T06:28:51.863Z,23.10
2024-01-15T06:31:44.558Z,25.13
2024-01-15T06:34:57.601Z,22.33
2024-01-15T06:38:19.107Z,23.25
2024-01-15T06:44:43.515Z,26.77
2024-01-15T06:56:40.252Z,20.58
2024-01-15T06:59:49.245Z,22.05
2024-01-15T07:03:00.048Z,20.90
2024-01-15T07:06:25.892Z,18.92
2024-01-15T07:09:53.163Z,22.77
2024-01-15T07:24:19.362Z,19.40
2024-01-15T07:27:28.727Z,18.90
2024-01-15T07:42:35.438Z,15.40
2024-01-15T07:58:17.233Z,15.20
2024-01-15T08:01:47.324Z,16.75
2024-01-15T08:04:47.437Z,14.48
2024-01-15T08:19:42.883Z,19.13
2024-01-15T08:26:54.252Z,17.52
2024-01-15T08:30:19.531Z,19.38
2024-01-15T08:38:00.056Z,16.15
2024-01-15T08:41:42.892Z,16.38
2024-01-15T08:44:48.016Z,16.75
2024-01-15T08:48:36.775Z,17.90
2024-01-15T08:51:28.752Z,16.65
2024-01-15T08:58:25.853Z,15.82
2024-01-15T09:10:19.982Z,19.02
2024-01-15T09:14:33.170Z,16.95
2024-01-15T09:17:36.866Z,15.50
2024-01-15T09:21:06.509Z,14.05
2024-01-15T09:24:39.259Z,18.13
2024-01-15T09:34:54.743Z,16.48
2024-01-15T09:38:01.214Z,16.35
2024-01-15T09:41:11.703Z,15.98
2024-01-15T09:44:21.508Z,14.25
2024-01-15T09:48:02.866Z,12.48
2024-01-15T09:51:36.475Z,13.32
2024-01-15T09:54:43.985Z,11.80
2024-01-15T09:58:16.547Z,13.90
2024-01-15T10:01:37.026Z,16.13
2024-01-15T10:13:09.921Z,12.68
2024-01-15T10:20:28.348Z,14.40
2024-01-15T10:27:57.864Z,16.10
2024-01-15T10:31:30.945Z,12.63
2024-01-15T10:34:46.399Z,13.15
2024-01-15T10:41:05.028Z,10.52
2024-01-15T10:44:26.627Z,16.27
2024-01-15T10:47:34.296Z,11.90
2024-01-15T10:50:55.300Z,14.73
2024-01-15T10:54:21.121Z,13.95
2024-01-15T10:57:29.151Z,15.27
2024-01-15T11:00:30.151Z,13.52
2024-01-15T11:03:20.948Z,15.85
2024-01-15T11:06:25.162Z,12.00
2024-01-15T11:09:26.719Z,12.52
2024-01-15T11:12:15.140Z,14.15
2024-01-15T11:15:23.443Z,14.63
2024-01-15T11:18:49.865Z,14.13
2024-01-15T11:22:09.593Z,14.23
2024-01-15T11:25:22.937Z,17.65
2024-01-15T11:28:59.766Z,20.73
2024-01-15T11:32:35.179Z,19.00
2024-01-15T11:40:03.124Z,16.35
2024-01-15T11:43:39.479Z,16.65
2024-01-15T11:50:33.925Z,12.95
2024-01-15T11:58:36.487Z,15.65
2024-01-15T12:04:41.075Z,14.90
2024-01-15T12:07:32.946Z,12.82
2024-01-15T12:10:28.725Z,14.93
2024-01-15T12:17:25.989Z,12.65
2024-01-15T12:20:44.854Z,12.35
2024-01-15T12:23:40.848Z,14.50
2024-01-15T12:26:41.701Z,15.02
2024-01-15T12:29:55.890Z,13.45
2024-01-15T12:32:57.590Z,13.90
2024-01-15T12:36:00.783Z,15.80
2024-01-15T12:45:42.507Z,15.13
2024-01-15T12:48:57.665Z,13.55
2024-01-15T12:52:33.332Z,14.18
2024-01-15T12:55:43.469Z,13.00
2024-01-15T12:58:44.548Z,17.98
2024-01-15T13:01:40.344Z,15.63
2024-01-15T13:04:58.865Z,15.80
2024-01-15T13:07:57.171Z,14.68
2024-01-15T13:14:49.274Z,13.88
2024-01-15T13:17:52.079Z,12.77
2024-01-15T13:20:57.837Z,15.38
2024-01-15T13:24:21.285Z,14.35
2024-01-15T13:27:43.670Z,14.82
2024-01-15T13:31:11.028Z,12.48
2024-01-15T13:34:24.031Z,13.40
2024-01-15T13:38:13.077Z,13.65
2024-01-15T13:41:11.544Z,13.13
2024-01-15T13:44:35.075Z,10.32
2024-01-15T13:47:58.950Z,15.90
2024-01-15T13:50:54.853Z,11.05
2024-01-15T13:53:48.941Z,12.82
2024-01-15T13:56:59.968Z,11.90
2024-01-15T13:59:53.742Z,14.05
2024-01-15T14:10:56.773Z,13.35
2024-01-15T14:13:58.060Z,11.43
2024-01-15T14:17:07.004Z,13.55
2024-01-15T14:20:23.078Z,11.75
2024-01-15T14:23:50.485Z,13.27
2024-01-15T14:27:01.578Z,14.60
2024-01-15T14:33:47.916Z,13.02
2024-01-15T14:40:25.089Z,18.88
2024-01-15T14:43:42.466Z,16.48
2024-01-15T14:50:47.638Z,14.75
2024-01-15T14:58:15.394Z,19.88
2024-01-15T15:01:46.397Z,14.60
2024-01-15T15:09:37.617Z,16.33
2024-01-15T15:12:53.281Z,13.82
2024-01-15T15:19:37.107Z,17.10
2024-01-15T15:23:04.622Z,18.80
2024-01-15T15:26:27.524Z,19.42
2024-01-15T15:33:09.592Z,17.10
2024-01-15T15:36:06.802Z,19.35
2024-01-15T15:39:13.472Z,20.05
2024-01-15T15:42:30.918Z,22.25
2024-01-15T15:45:27.674Z,20.75
2024-01-15T15:48:59.722Z,21.08
2024-01-15T15:52:29.371Z,17.45
2024-01-15T15:55:39.986Z,18.63
2024-01-15T15:59:01.596Z,18.05
2024-01-15T16:02:02.940Z,20.40
2024-01-15T16:05:13.948Z,17.55
2024-01-15T16:13:39.948Z,19.77
2024-01-15T16:23:12.928Z,22.60
2024-01-15T16:23:29.213Z,24.38
2024-01-15T16:24:04.211Z,26.92
2024-01-15T16:26:49.483Z,29.08
2024-01-15T16:29:46.311Z,28.83
2024-01-15T16:33:04.284Z,29.85
2024-01-15T16:36:08.845Z,24.10
2024-01-15T16:39:30.474Z,28.50
2024-01-15T16:42:47.011Z,30.25
2024-01-15T16:46:01.808Z,26.08
2024-01-15T16:49:03.244Z,24.92
2024-01-15T16:52:13.302Z,25.73
2024-01-15T16:58:48.984Z,26.98
2024-01-15T17:02:06.074Z,27.35
2024-01-15T17:05:25.527Z,25.80
2024-01-15T17:08:40.135Z,24.02
2024-01-15T17:11:55.967Z,23.13
2024-01-15T17:15:04.686Z,20.83
2024-01-15T17:18:17.138Z,20.00
2024-01-15T17:21:22.630Z,18.52
2024-01-15T17:25:04.416Z,21.40
2024-01-15T17:28:17.685Z,16.52
2024-01-15T17:31:19.857Z,17.80
2024-01-15T17:34:16.213Z,21.10
2024-01-15T17:40:43.946Z,21.80
2024-01-15T17:44:02.745Z,18.05
2024-01-15T17:47:11.717Z,19.55
2024-01-15T17:53:46.492Z,19.30
2024-01-15T18:00:11.411Z,19.83
2024-01-15T18:03:14.861Z,19.95
2024-01-15T18:09:38.216Z,19.52
2024-01-15T18:12:44.026Z,18.30
2024-01-15T18:15:55.718Z,15.23
2024-01-15T18:19:07.523Z,17.30
2024-01-15T18:22:51.461Z,15.80
2024-01-15T18:25:53.434Z,17.67
2024-01-15T18:28:47.837Z,14.90
2024-01-15T18:35:10.181Z,17.08
2024-01-15T18:38:02.008Z,18.40
2024-01-15T18:40:55.436Z,17.67
2024-01-15T18:47:34.343Z,15.43
2024-01-15T18:50:37.283Z,18.27
2024-01-15T18:53:31.115Z,17.95
2024-01-15T18:56:28.210Z,18.80
2024-01-15T18:59:37.765Z,22.42
2024-01-15T19:02:54.897Z,19.70
2024-01-15T19:05:59.728Z,21.90
2024-01-15T19:09:03.207Z,23.83
2024-01-15T19:12:08.751Z,20.98
2024-01-15T19:15:10.463Z,23.40
2024-01-15T19:22:08.858Z,22.30
2024-01-15T19:25:27.634Z,19.65
2024-01-15T19:28:41.276Z,20.27
2024-01-15T19:32:05.159Z,16.73
2024-01-15T19:35:16.689Z,15.60
2024-01-15T19:41:38.455Z,17.92
2024-01-15T19:44:56.860Z,16.27
2024-01-15T19:51:13.966Z,19.27
2024-01-15T19:54:42.248Z,17.65
2024-01-15T19:57:46.925Z,16.92
2024-01-15T20:00:39.251Z,16.83
2024-01-15T20:03:45.644Z,19.38
2024-01-15T20:06:53.236Z,17.42
2024-01-15T20:10:06.603Z,18.30
2024-01-15T20:13:06.983Z,16.42
2024-01-15T20:16:32.862Z,16.38
2024-01-15T20:19:23.437Z,18.92
2024-01-15T20:22:32.438Z,22.95
2024-01-15T20:26:04.228Z,31.55
2024-01-15T20:29:21.089Z,29.27
2024-01-15T20:32:41.457Z,23.95
2024-01-15T20:35:47.150Z,25.65
2024-01-15T20:39:04.050Z,24.58
2024-01-15T20:42:10.238Z,23.23
2024-01-15T20:45:34.248Z,20.65
2024-01-15T20:48:57.103Z,20.60
2024-01-15T20:52:15.883Z,19.73
2024-01-15T20:55:17.563Z,20.83
2024-01-15T20:58:15.545Z,21.30
2024-01-15T21:01:40.300Z,22.42
2024-01-15T21:05:10.383Z,21.13
2024-01-15T21:08:36.019Z,20.85
2024-01-15T21:15:07.987Z,20.33
2024-01-15T21:18:28.651Z,21.75
2024-01-15T21:21:45.596Z,21.05
2024-01-15T21:25:01.315Z,26.00
2024-01-15T21:28:06.595Z,23.13
2024-01-15T21:31:29.248Z,31.00
2024-01-15T21:34:35.727Z,26.85
2024-01-15T21:37:36.436Z,26.52
2024-01-15T21:40:33.796Z,21.63
2024-01-15T21:43:38.838Z,24.80
2024-01-15T21:46:56.009Z,22.92
2024-01-15T21:50:09.572Z,24.92
2024-01-15T21:53:20.197Z,21.02
2024-01-15T21:56:40.442Z,18.45
2024-01-15T22:00:16.644Z,20.27
2024-01-15T22:03:37.286Z,19.83
2024-01-15T22:06:46.810Z,21.80
2024-01-15T22:10:05.337Z,17.10
2024-01-15T22:13:01.851Z,18.77
2024-01-15T22:16:12.048Z,16.10
2024-01-15T22:19:34.428Z,19.88
2024-01-15T22:29:38.978Z,18.55
2024-01-15T22:32:53.330Z,19.33
2024-01-15T22:35:49.753Z,22.02
2024-01-15T22:42:35.697Z,20.63
2024-01-15T22:45:46.566Z,18.73
2024-01-15T22:48:52.539Z,19.73
2024-01-15T22:51:44.849Z,21.00
2024-01-15T22:54:59.139Z,21.05
2024-01-15T23:01:41.678Z,19.40
2024-01-15T23:04:51.959Z,19.60
2024-01-15T23:07:43.244Z,20.00
2024-01-15T23:10:53.839Z,21.88
2024-01-15T23:13:49.786Z,24.13
2024-01-15T23:16:46.552Z,22.45
2024-01-15T23:20:28.773Z,24.33
2024-01-15T23:23:51.464Z,19.60
2024-01-15T23:26:44.091Z,26.13
2024-01-15T23:29:44.112Z,22.80
2024-01-15T23:36:18.786Z,24.08
2024-01-15T23:43:23.077Z,23.88
2024-01-15T23:46:29.008Z,22.58
2024-01-15T23:49:23.642Z,25.48
2024-01-15T23:52:48.676Z,23.10
2024-01-15T23:55:58.967Z,19.27
2024-01-15T23:58:59.757Z,23.48
